sensor_id;sensor_type;location;lat;lon;timestamp;P1;durP1;ratioP1;P2;durP2;ratioP2
11283;SDS011;5698;47.332;11.180;2022-07-22T00:01:48;15.30;;;13.47;;
11283;SDS011;5698;47.332;11.180;2022-07-22T00:04:15;16.00;;;13.57;;
11283;SDS011;5698;47.332;11.180;2022-07-22T00:06:42;16.73;;;12.97;;
11283;SDS011;5698;47.332;11.180;2022-07-22T00:09:09;13.47;;;12.10;;
11283;SDS011;5698;47.332;11.180;2022-07-22T00:11:36;14.57;;;13.03;;
11283;SDS011;5698;47.332;11.180;2022-07-22T00:14:05;13.23;;;12.03;;
11283;SDS011;5698;47.332;11.180;2022-07-22T00:16:32;14.30;;;12.80;;
11283;SDS011;5698;47.332;11.180;2022-07-22T00:18:59;14.70;;;13.10;;
11283;SDS011;5698;47.332;11.180;2022-07-22T00:21:26;16.87;;;12.63;;
11283;SDS011;5698;47.332;11.180;2022-07-22T00:23:53;14.83;;;13.33;;
11283;SDS011;5698;47.332;11.180;2022-07-22T00:26:20;14.70;;;13.20;;
11283;SDS011;5698;47.332;11.180;2022-07-22T00:28:47;16.27;;;14.67;;
11283;SDS011;5698;47.332;11.180;2022-07-22T00:31:16;14.63;;;13.17;;
11283;SDS011;5698;47.332;11.180;2022-07-22T00:33:43;14.13;;;12.63;;
11283;SDS011;5698;47.332;11.180;2022-07-22T00:36:10;17.20;;;13.10;;
11283;SDS011;5698;47.332;11.180;2022-07-22T00:38:37;13.93;;;11.70;;
11283;SDS011;5698;47.332;11.180;2022-07-22T00:41:04;14.63;;;13.30;;
11283;SDS011;5698;47.332;11.180;2022-07-22T00:46:18;20.77;;;16.53;;
11283;SDS011;5698;47.332;11.180;2022-07-22T00:48:45;16.47;;;14.73;;
11283;SDS011;5698;47.332;11.180;2022-07-22T00:51:12;18.73;;;14.83;;
11283;SDS011;5698;47.332;11.180;2022-07-22T00:53:39;17.00;;;15.20;;
11283;SDS011;5698;47.332;11.180;2022-07-22T00:56:07;18.77;;;16.57;;
11283;SDS011;5698;47.332;11.180;2022-07-22T00:58:34;18.23;;;15.77;;
11283;SDS011;5698;47.332;11.180;2022-07-22T01:01:01;16.77;;;14.20;;
11283;SDS011;5698;47.332;11.180;2022-07-22T01:03:29;15.07;;;13.57;;
11283;SDS011;5698;47.332;11.180;2022-07-22T01:05:56;17.37;;;14.47;;
11283;SDS011;5698;47.332;11.180;2022-07-22T01:08:23;15.50;;;13.70;;
11283;SDS011;5698;47.332;11.180;2022-07-22T01:10:51;14.90;;;13.40;;
11283;SDS011;5698;47.332;11.180;2022-07-22T01:13:18;14.67;;;13.20;;
11283;SDS011;5698;47.332;11.180;2022-07-22T01:15:45;14.77;;;13.27;;
11283;SDS011;5698;47.332;11.180;2022-07-22T01:18:12;15.00;;;13.57;;
11283;SDS011;5698;47.332;11.180;2022-07-22T01:20:40;16.13;;;14.50;;
11283;SDS011;5698;47.332;11.180;2022-07-22T01:23:07;16.90;;;15.30;;
11283;SDS011;5698;47.332;11.180;2022-07-22T01:25:34;14.20;;;12.90;;
11283;SDS011;5698;47.332;11.180;2022-07-22T01:28:01;15.40;;;13.90;;
11283;SDS011;5698;47.332;11.180;2022-07-22T01:30:28;16.13;;;14.47;;
11283;SDS011;5698;47.332;11.180;2022-07-22T01:32:55;17.90;;;16.03;;
11283;SDS011;5698;47.332;11.180;2022-07-22T01:35:22;15.70;;;14.10;;
11283;SDS011;5698;47.332;11.180;2022-07-22T01:37:51;17.03;;;14.13;;
11283;SDS011;5698;47.332;11.180;2022-07-22T01:40:18;18.43;;;16.57;;
11283;SDS011;5698;47.332;11.180;2022-07-22T01:42:45;16.93;;;15.33;;
11283;SDS011;5698;47.332;11.180;2022-07-22T01:45:12;16.90;;;15.20;;
11283;SDS011;5698;47.332;11.180;2022-07-22T01:47:39;15.63;;;14.20;;
11283;SDS011;5698;47.332;11.180;2022-07-22T01:50:06;17.77;;;15.93;;
11283;SDS011;5698;47.332;11.180;2022-07-22T01:52:36;17.03;;;15.27;;
11283;SDS011;5698;47.332;11.180;2022-07-22T01:55:05;21.63;;;19.43;;
11283;SDS011;5698;47.332;11.180;2022-07-22T01:57:33;17.43;;;15.73;;
11283;SDS011;5698;47.332;11.180;2022-07-22T02:00:00;16.90;;;14.87;;
11283;SDS011;5698;47.332;11.180;2022-07-22T02:02:27;20.20;;;18.10;;
11283;SDS011;5698;47.332;11.180;2022-07-22T02:04:54;16.57;;;15.00;;
11283;SDS011;5698;47.332;11.180;2022-07-22T02:07:21;16.17;;;14.40;;
11283;SDS011;5698;47.332;11.180;2022-07-22T02:09:49;16.00;;;14.37;;
11283;SDS011;5698;47.332;11.180;2022-07-22T02:12:18;18.53;;;15.13;;
11283;SDS011;5698;47.332;11.180;2022-07-22T02:14:45;18.17;;;15.03;;
11283;SDS011;5698;47.332;11.180;2022-07-22T02:17:12;16.77;;;15.07;;
11283;SDS011;5698;47.332;11.180;2022-07-22T02:19:40;17.20;;;15.40;;
11283;SDS011;5698;47.332;11.180;2022-07-22T02:22:07;16.97;;;15.37;;
11283;SDS011;5698;47.332;11.180;2022-07-22T02:24:34;18.07;;;16.20;;
11283;SDS011;5698;47.332;11.180;2022-07-22T02:27:02;18.07;;;16.27;;
11283;SDS011;5698;47.332;11.180;2022-07-22T02:29:30;17.00;;;15.47;;
11283;SDS011;5698;47.332;11.180;2022-07-22T02:31:58;17.03;;;15.13;;
11283;SDS011;5698;47.332;11.180;2022-07-22T02:34:25;17.27;;;15.47;;
11283;SDS011;5698;47.332;11.180;2022-07-22T02:36:52;16.17;;;14.57;;
11283;SDS011;5698;47.332;11.180;2022-07-22T02:39:19;20.37;;;16.20;;
11283;SDS011;5698;47.332;11.180;2022-07-22T02:41:46;15.87;;;14.27;;
11283;SDS011;5698;47.332;11.180;2022-07-22T02:44:13;16.00;;;14.43;;
11283;SDS011;5698;47.332;11.180;2022-07-22T02:46:41;17.97;;;16.07;;
11283;SDS011;5698;47.332;11.180;2022-07-22T02:49:08;17.33;;;15.47;;
11283;SDS011;5698;47.332;11.180;2022-07-22T02:51:35;16.93;;;15.33;;
11283;SDS011;5698;47.332;11.180;2022-07-22T02:54:03;16.53;;;14.77;;
11283;SDS011;5698;47.332;11.180;2022-07-22T02:56:30;17.63;;;15.53;;
11283;SDS011;5698;47.332;11.180;2022-07-22T02:58:57;17.27;;;15.57;;
11283;SDS011;5698;47.332;11.180;2022-07-22T03:01:24;16.67;;;14.93;;
11283;SDS011;5698;47.332;11.180;2022-07-22T03:03:52;16.77;;;15.10;;
11283;SDS011;5698;47.332;11.180;2022-07-22T03:06:19;16.57;;;15.07;;
11283;SDS011;5698;47.332;11.180;2022-07-22T03:08:47;18.73;;;16.77;;
11283;SDS011;5698;47.332;11.180;2022-07-22T03:11:14;19.87;;;17.63;;
11283;SDS011;5698;47.332;11.180;2022-07-22T03:13:41;19.30;;;17.43;;
11283;SDS011;5698;47.332;11.180;2022-07-22T03:16:08;19.20;;;17.47;;
11283;SDS011;5698;47.332;11.180;2022-07-22T03:18:35;21.37;;;19.27;;
11283;SDS011;5698;47.332;11.180;2022-07-22T03:21:04;20.27;;;18.27;;
11283;SDS011;5698;47.332;11.180;2022-07-22T03:23:31;19.83;;;17.67;;
11283;SDS011;5698;47.332;11.180;2022-07-22T03:25:58;20.40;;;18.23;;
11283;SDS011;5698;47.332;11.180;2022-07-22T03:28:25;19.80;;;18.00;;
11283;SDS011;5698;47.332;11.180;2022-07-22T03:30:52;18.77;;;16.93;;
11283;SDS011;5698;47.332;11.180;2022-07-22T03:33:19;24.10;;;18.50;;
11283;SDS011;5698;47.332;11.180;2022-07-22T03:35:46;20.90;;;18.70;;
11283;SDS011;5698;47.332;11.180;2022-07-22T03:38:15;21.23;;;19.10;;
11283;SDS011;5698;47.332;11.180;2022-07-22T03:40:42;20.77;;;18.57;;
11283;SDS011;5698;47.332;11.180;2022-07-22T03:43:09;20.83;;;18.47;;
11283;SDS011;5698;47.332;11.180;2022-07-22T03:45:36;20.40;;;18.33;;
11283;SDS011;5698;47.332;11.180;2022-07-22T03:48:03;21.77;;;19.47;;
11283;SDS011;5698;47.332;11.180;2022-07-22T03:50:31;20.83;;;18.73;;
11283;SDS011;5698;47.332;11.180;2022-07-22T03:52:58;22.63;;;18.00;;
11283;SDS011;5698;47.332;11.180;2022-07-22T03:55:26;21.83;;;19.53;;
11283;SDS011;5698;47.332;11.180;2022-07-22T03:57:53;19.43;;;17.53;;
11283;SDS011;5698;47.332;11.180;2022-07-22T04:00:20;19.87;;;17.87;;
11283;SDS011;5698;47.332;11.180;2022-07-22T04:02:47;22.57;;;18.57;;
11283;SDS011;5698;47.332;11.180;2022-07-22T04:05:14;20.10;;;18.13;;
11283;SDS011;5698;47.332;11.180;2022-07-22T04:07:41;19.73;;;17.73;;
11283;SDS011;5698;47.332;11.180;2022-07-22T04:10:08;21.30;;;19.30;;
11283;SDS011;5698;47.332;11.180;2022-07-22T04:12:37;19.53;;;16.83;;
11283;SDS011;5698;47.332;11.180;2022-07-22T04:15:06;18.13;;;16.27;;
11283;SDS011;5698;47.332;11.180;2022-07-22T04:17:33;18.43;;;16.53;;
11283;SDS011;5698;47.332;11.180;2022-07-22T04:20:01;17.30;;;15.50;;
11283;SDS011;5698;47.332;11.180;2022-07-22T04:22:28;16.50;;;14.80;;
11283;SDS011;5698;47.332;11.180;2022-07-22T04:24:55;17.07;;;15.47;;
11283;SDS011;5698;47.332;11.180;2022-07-22T04:27:22;16.90;;;15.20;;
11283;SDS011;5698;47.332;11.180;2022-07-22T04:29:51;15.63;;;14.00;;
11283;SDS011;5698;47.332;11.180;2022-07-22T04:32:18;15.73;;;14.30;;
11283;SDS011;5698;47.332;11.180;2022-07-22T04:34:45;16.33;;;14.80;;
11283;SDS011;5698;47.332;11.180;2022-07-22T04:37:12;14.70;;;13.30;;
11283;SDS011;5698;47.332;11.180;2022-07-22T04:39:39;16.83;;;15.13;;
11283;SDS011;5698;47.332;11.180;2022-07-22T04:42:06;15.23;;;13.60;;
11283;SDS011;5698;47.332;11.180;2022-07-22T04:44:33;15.90;;;14.40;;
11283;SDS011;5698;47.332;11.180;2022-07-22T04:47:01;16.77;;;14.87;;
11283;SDS011;5698;47.332;11.180;2022-07-22T04:49:28;17.20;;;15.60;;
11283;SDS011;5698;47.332;11.180;2022-07-22T04:51:55;19.03;;;14.20;;
11283;SDS011;5698;47.332;11.180;2022-07-22T04:54:22;15.90;;;14.50;;
11283;SDS011;5698;47.332;11.180;2022-07-22T04:56:50;17.03;;;15.33;;
11283;SDS011;5698;47.332;11.180;2022-07-22T04:59:17;16.37;;;14.67;;
11283;SDS011;5698;47.332;11.180;2022-07-22T05:01:44;14.10;;;12.80;;
11283;SDS011;5698;47.332;11.180;2022-07-22T05:04:12;14.80;;;13.20;;
11283;SDS011;5698;47.332;11.180;2022-07-22T05:06:39;15.03;;;13.63;;
11283;SDS011;5698;47.332;11.180;2022-07-22T05:09:06;16.97;;;13.90;;
11283;SDS011;5698;47.332;11.180;2022-07-22T05:11:33;15.20;;;13.60;;
11283;SDS011;5698;47.332;11.180;2022-07-22T05:14:00;14.23;;;12.93;;
11283;SDS011;5698;47.332;11.180;2022-07-22T05:16:27;15.53;;;14.03;;
11283;SDS011;5698;47.332;11.180;2022-07-22T05:18:54;15.23;;;13.70;;
11283;SDS011;5698;47.332;11.180;2022-07-22T05:21:22;15.70;;;14.20;;
11283;SDS011;5698;47.332;11.180;2022-07-22T05:23:49;17.97;;;16.10;;
11283;SDS011;5698;47.332;11.180;2022-07-22T05:26:17;16.03;;;14.43;;
11283;SDS011;5698;47.332;11.180;2022-07-22T05:28:44;17.10;;;15.40;;
11283;SDS011;5698;47.332;11.180;2022-07-22T05:31:11;21.67;;;15.40;;
11283;SDS011;5698;47.332;11.180;2022-07-22T05:33:38;19.13;;;17.13;;
11283;SDS011;5698;47.332;11.180;2022-07-22T05:36:05;19.43;;;15.80;;
11283;SDS011;5698;47.332;11.180;2022-07-22T05:38:36;18.03;;;16.20;;
11283;SDS011;5698;47.332;11.180;2022-07-22T05:41:03;16.43;;;14.73;;
11283;SDS011;5698;47.332;11.180;2022-07-22T05:43:30;16.17;;;14.47;;
11283;SDS011;5698;47.332;11.180;2022-07-22T05:45:57;17.07;;;15.43;;
11283;SDS011;5698;47.332;11.180;2022-07-22T05:48:25;17.00;;;15.20;;
11283;SDS011;5698;47.332;11.180;2022-07-22T05:50:52;16.70;;;14.97;;
11283;SDS011;5698;47.332;11.180;2022-07-22T05:53:19;19.77;;;14.93;;
11283;SDS011;5698;47.332;11.180;2022-07-22T05:55:47;18.77;;;15.63;;
11283;SDS011;5698;47.332;11.180;2022-07-22T05:58:14;15.63;;;14.07;;
11283;SDS011;5698;47.332;11.180;2022-07-22T06:00:41;18.43;;;16.33;;
11283;SDS011;5698;47.332;11.180;2022-07-22T06:03:08;18.10;;;16.40;;
11283;SDS011;5698;47.332;11.180;2022-07-22T06:05:35;19.20;;;16.00;;
11283;SDS011;5698;47.332;11.180;2022-07-22T06:08:02;17.60;;;16.00;;
11283;SDS011;5698;47.332;11.180;2022-07-22T06:10:30;18.23;;;16.47;;
11283;SDS011;5698;47.332;11.180;2022-07-22T06:12:58;18.47;;;16.57;;
11283;SDS011;5698;47.332;11.180;2022-07-22T06:15:26;17.30;;;15.50;;
11283;SDS011;5698;47.332;11.180;2022-07-22T06:17:53;16.70;;;15.03;;
11283;SDS011;5698;47.332;11.180;2022-07-22T06:20:20;16.37;;;14.87;;
11283;SDS011;5698;47.332;11.180;2022-07-22T06:22:47;16.77;;;15.17;;
11283;SDS011;5698;47.332;11.180;2022-07-22T06:25:14;17.57;;;15.23;;
11283;SDS011;5698;47.332;11.180;2022-07-22T06:27:41;17.10;;;14.90;;
11283;SDS011;5698;47.332;11.180;2022-07-22T06:30:10;16.77;;;15.07;;
11283;SDS011;5698;47.332;11.180;2022-07-22T06:32:38;16.47;;;14.90;;
11283;SDS011;5698;47.332;11.180;2022-07-22T06:35:05;16.03;;;14.43;;
11283;SDS011;5698;47.332;11.180;2022-07-22T06:37:33;16.67;;;15.07;;
11283;SDS011;5698;47.332;11.180;2022-07-22T06:40:00;17.77;;;15.43;;
11283;SDS011;5698;47.332;11.180;2022-07-22T06:42:27;15.80;;;14.13;;
11283;SDS011;5698;47.332;11.180;2022-07-22T06:44:54;15.87;;;14.17;;
11283;SDS011;5698;47.332;11.180;2022-07-22T06:47:22;15.97;;;14.47;;
11283;SDS011;5698;47.332;11.180;2022-07-22T06:49:49;15.20;;;13.80;;
11283;SDS011;5698;47.332;11.180;2022-07-22T06:52:16;15.50;;;13.93;;
11283;SDS011;5698;47.332;11.180;2022-07-22T06:54:43;16.03;;;14.43;;
11283;SDS011;5698;47.332;11.180;2022-07-22T06:57:10;14.90;;;13.40;;
11283;SDS011;5698;47.332;11.180;2022-07-22T06:59:37;17.77;;;13.83;;
11283;SDS011;5698;47.332;11.180;2022-07-22T07:02:04;15.30;;;13.80;;
11283;SDS011;5698;47.332;11.180;2022-07-22T07:04:33;15.47;;;13.07;;
11283;SDS011;5698;47.332;11.180;2022-07-22T07:07:00;14.10;;;12.80;;
11283;SDS011;5698;47.332;11.180;2022-07-22T07:09:27;14.90;;;12.63;;
11283;SDS011;5698;47.332;11.180;2022-07-22T07:11:54;16.37;;;13.07;;
11283;SDS011;5698;47.332;11.180;2022-07-22T07:14:21;13.40;;;12.20;;
11283;SDS011;5698;47.332;11.180;2022-07-22T07:16:48;13.90;;;12.47;;
11283;SDS011;5698;47.332;11.180;2022-07-22T07:19:15;14.70;;;13.27;;
11283;SDS011;5698;47.332;11.180;2022-07-22T07:21:43;13.57;;;12.27;;
11283;SDS011;5698;47.332;11.180;2022-07-22T07:24:10;13.63;;;12.07;;
11283;SDS011;5698;47.332;11.180;2022-07-22T07:26:38;15.00;;;13.53;;
11283;SDS011;5698;47.332;11.180;2022-07-22T07:29:05;12.60;;;11.37;;
11283;SDS011;5698;47.332;11.180;2022-07-22T07:31:32;14.13;;;12.70;;
11283;SDS011;5698;47.332;11.180;2022-07-22T07:33:59;12.93;;;11.73;;
11283;SDS011;5698;47.332;11.180;2022-07-22T07:36:26;13.20;;;11.87;;
11283;SDS011;5698;47.332;11.180;2022-07-22T07:38:55;12.77;;;11.57;;
11283;SDS011;5698;47.332;11.180;2022-07-22T07:41:22;13.30;;;12.00;;
11283;SDS011;5698;47.332;11.180;2022-07-22T07:43:49;13.07;;;11.87;;
11283;SDS011;5698;47.332;11.180;2022-07-22T07:46:16;15.00;;;13.53;;
11283;SDS011;5698;47.332;11.180;2022-07-22T07:48:43;14.27;;;12.80;;
11283;SDS011;5698;47.332;11.180;2022-07-22T07:51:10;13.60;;;12.30;;
11283;SDS011;5698;47.332;11.180;2022-07-22T07:53:38;13.53;;;12.10;;
11283;SDS011;5698;47.332;11.180;2022-07-22T07:56:07;14.30;;;12.90;;
11283;SDS011;5698;47.332;11.180;2022-07-22T07:58:34;13.87;;;12.57;;
11283;SDS011;5698;47.332;11.180;2022-07-22T08:01:01;12.77;;;11.47;;
11283;SDS011;5698;47.332;11.180;2022-07-22T08:03:28;13.03;;;11.70;;
11283;SDS011;5698;47.332;11.180;2022-07-22T08:05:55;12.97;;;11.77;;
11283;SDS011;5698;47.332;11.180;2022-07-22T08:08:22;12.23;;;11.13;;
11283;SDS011;5698;47.332;11.180;2022-07-22T08:10:49;12.67;;;11.57;;
11283;SDS011;5698;47.332;11.180;2022-07-22T08:13:18;13.40;;;12.00;;
11283;SDS011;5698;47.332;11.180;2022-07-22T08:15:45;12.83;;;11.73;;
11283;SDS011;5698;47.332;11.180;2022-07-22T08:18:12;14.63;;;12.00;;
11283;SDS011;5698;47.332;11.180;2022-07-22T08:20:39;11.73;;;10.73;;
11283;SDS011;5698;47.332;11.180;2022-07-22T08:23:06;12.20;;;11.00;;
11283;SDS011;5698;47.332;11.180;2022-07-22T08:25:33;11.93;;;10.50;;
11283;SDS011;5698;47.332;11.180;2022-07-22T08:28:00;10.73;;;9.67;;
11283;SDS011;5698;47.332;11.180;2022-07-22T08:30:29;10.20;;;9.30;;
11283;SDS011;5698;47.332;11.180;2022-07-22T08:32:56;11.03;;;10.13;;
11283;SDS011;5698;47.332;11.180;2022-07-22T08:35:23;11.57;;;10.30;;
11283;SDS011;5698;47.332;11.180;2022-07-22T08:37:50;11.90;;;10.70;;
11283;SDS011;5698;47.332;11.180;2022-07-22T08:40:17;10.60;;;9.60;;
11283;SDS011;5698;47.332;11.180;2022-07-22T08:42:46;11.20;;;10.17;;
11283;SDS011;5698;47.332;11.180;2022-07-22T08:45:15;10.70;;;9.70;;
11283;SDS011;5698;47.332;11.180;2022-07-22T08:47:44;11.43;;;10.40;;
11283;SDS011;5698;47.332;11.180;2022-07-22T08:50:12;11.97;;;10.83;;
11283;SDS011;5698;47.332;11.180;2022-07-22T08:52:39;11.57;;;10.57;;
11283;SDS011;5698;47.332;11.180;2022-07-22T08:55:07;11.50;;;10.47;;
11283;SDS011;5698;47.332;11.180;2022-07-22T08:57:35;11.33;;;10.43;;
11283;SDS011;5698;47.332;11.180;2022-07-22T09:00:07;10.40;;;9.50;;
11283;SDS011;5698;47.332;11.180;2022-07-22T09:02:37;10.97;;;10.00;;
11283;SDS011;5698;47.332;11.180;2022-07-22T09:05:07;10.57;;;9.57;;
11283;SDS011;5698;47.332;11.180;2022-07-22T09:07:35;11.67;;;10.57;;
11283;SDS011;5698;47.332;11.180;2022-07-22T09:10:04;11.17;;;10.20;;
11283;SDS011;5698;47.332;11.180;2022-07-22T09:12:32;11.77;;;10.57;;
11283;SDS011;5698;47.332;11.180;2022-07-22T09:15:01;11.83;;;10.70;;
11283;SDS011;5698;47.332;11.180;2022-07-22T09:17:29;11.47;;;10.33;;
11283;SDS011;5698;47.332;11.180;2022-07-22T09:19:58;11.37;;;10.50;;
11283;SDS011;5698;47.332;11.180;2022-07-22T09:22:34;11.23;;;10.33;;
11283;SDS011;5698;47.332;11.180;2022-07-22T09:27:46;11.37;;;10.27;;
11283;SDS011;5698;47.332;11.180;2022-07-22T09:30:14;12.00;;;10.90;;
11283;SDS011;5698;47.332;11.180;2022-07-22T09:32:43;12.47;;;10.63;;
11283;SDS011;5698;47.332;11.180;2022-07-22T09:35:10;10.23;;;9.40;;
11283;SDS011;5698;47.332;11.180;2022-07-22T09:37:44;11.03;;;9.83;;
11283;SDS011;5698;47.332;11.180;2022-07-22T09:40:18;11.97;;;10.53;;
11283;SDS011;5698;47.332;11.180;2022-07-22T09:42:47;10.53;;;9.70;;
11283;SDS011;5698;47.332;11.180;2022-07-22T09:45:15;10.50;;;9.60;;
11283;SDS011;5698;47.332;11.180;2022-07-22T09:47:44;11.33;;;10.30;;
11283;SDS011;5698;47.332;11.180;2022-07-22T09:50:19;11.13;;;10.03;;
11283;SDS011;5698;47.332;11.180;2022-07-22T09:52:50;11.17;;;10.03;;
11283;SDS011;5698;47.332;11.180;2022-07-22T09:55:20;10.80;;;9.60;;
11283;SDS011;5698;47.332;11.180;2022-07-22T09:57:49;10.60;;;9.63;;
11283;SDS011;5698;47.332;11.180;2022-07-22T10:00:18;11.03;;;10.13;;
11283;SDS011;5698;47.332;11.180;2022-07-22T10:02:48;11.20;;;10.30;;
11283;SDS011;5698;47.332;11.180;2022-07-22T10:05:23;10.87;;;9.87;;
11283;SDS011;5698;47.332;11.180;2022-07-22T10:07:54;10.70;;;9.73;;
11283;SDS011;5698;47.332;11.180;2022-07-22T10:10:22;12.20;;;11.00;;
11283;SDS011;5698;47.332;11.180;2022-07-22T10:12:51;10.60;;;9.70;;
11283;SDS011;5698;47.332;11.180;2022-07-22T10:15:19;10.83;;;9.93;;
11283;SDS011;5698;47.332;11.180;2022-07-22T10:17:48;11.40;;;10.23;;
11283;SDS011;5698;47.332;11.180;2022-07-22T10:20:16;10.83;;;9.50;;
11283;SDS011;5698;47.332;11.180;2022-07-22T10:22:45;10.40;;;9.50;;
11283;SDS011;5698;47.332;11.180;2022-07-22T10:25:22;10.63;;;9.63;;
11283;SDS011;5698;47.332;11.180;2022-07-22T10:27:51;10.87;;;9.77;;
11283;SDS011;5698;47.332;11.180;2022-07-22T10:30:20;10.70;;;9.70;;
11283;SDS011;5698;47.332;11.180;2022-07-22T10:33:02;10.67;;;9.57;;
11283;SDS011;5698;47.332;11.180;2022-07-22T10:35:30;13.83;;;9.87;;
11283;SDS011;5698;47.332;11.180;2022-07-22T10:38:00;10.20;;;9.23;;
11283;SDS011;5698;47.332;11.180;2022-07-22T10:40:31;9.80;;;8.13;;
11283;SDS011;5698;47.332;11.180;2022-07-22T10:43:11;9.33;;;8.53;;
11283;SDS011;5698;47.332;11.180;2022-07-22T10:45:40;10.50;;;9.50;;
11283;SDS011;5698;47.332;11.180;2022-07-22T10:48:11;10.45;;;9.27;;
11283;SDS011;5698;47.332;11.180;2022-07-22T10:50:43;10.45;;;9.35;;
11283;SDS011;5698;47.332;11.180;2022-07-22T10:53:38;9.85;;;9.13;;
11283;SDS011;5698;47.332;11.180;2022-07-22T10:56:08;9.85;;;8.48;;
11283;SDS011;5698;47.332;11.180;2022-07-22T10:58:47;10.52;;;8.88;;
11283;SDS011;5698;47.332;11.180;2022-07-22T11:01:21;9.93;;;9.07;;
11283;SDS011;5698;47.332;11.180;2022-07-22T11:03:51;9.68;;;8.88;;
11283;SDS011;5698;47.332;11.180;2022-07-22T11:06:23;10.15;;;9.10;;
11283;SDS011;5698;47.332;11.180;2022-07-22T11:08:53;9.50;;;8.80;;
11283;SDS011;5698;47.332;11.180;2022-07-22T11:11:31;10.50;;;8.73;;
11283;SDS011;5698;47.332;11.180;2022-07-22T11:14:10;10.73;;;9.82;;
11283;SDS011;5698;47.332;11.180;2022-07-22T11:16:46;10.23;;;9.35;;
11283;SDS011;5698;47.332;11.180;2022-07-22T11:19:14;10.10;;;8.45;;
11283;SDS011;5698;47.332;11.180;2022-07-22T11:21:48;10.18;;;9.27;;
11283;SDS011;5698;47.332;11.180;2022-07-22T11:24:17;9.25;;;8.48;;
11283;SDS011;5698;47.332;11.180;2022-07-22T11:26:46;9.40;;;8.60;;
11283;SDS011;5698;47.332;11.180;2022-07-22T11:29:15;10.10;;;9.30;;
11283;SDS011;5698;47.332;11.180;2022-07-22T11:31:44;9.93;;;8.77;;
11283;SDS011;5698;47.332;11.180;2022-07-22T11:34:12;10.48;;;9.27;;
11283;SDS011;5698;47.332;11.180;2022-07-22T11:36:41;9.98;;;8.98;;
11283;SDS011;5698;47.332;11.180;2022-07-22T11:39:09;9.43;;;8.52;;
11283;SDS011;5698;47.332;11.180;2022-07-22T11:41:39;9.25;;;8.35;;
11283;SDS011;5698;47.332;11.180;2022-07-22T11:44:07;8.27;;;7.50;;
11283;SDS011;5698;47.332;11.180;2022-07-22T11:46:35;9.15;;;8.30;;
11283;SDS011;5698;47.332;11.180;2022-07-22T11:49:03;8.73;;;7.97;;
11283;SDS011;5698;47.332;11.180;2022-07-22T11:51:31;8.15;;;7.47;;
11283;SDS011;5698;47.332;11.180;2022-07-22T11:54:00;8.68;;;7.97;;
11283;SDS011;5698;47.332;11.180;2022-07-22T11:56:27;8.38;;;7.63;;
11283;SDS011;5698;47.332;11.180;2022-07-22T11:58:56;7.82;;;7.13;;
11283;SDS011;5698;47.332;11.180;2022-07-22T12:01:23;8.63;;;7.82;;
11283;SDS011;5698;47.332;11.180;2022-07-22T12:03:52;8.02;;;7.38;;
11283;SDS011;5698;47.332;11.180;2022-07-22T12:06:21;9.02;;;6.82;;
11283;SDS011;5698;47.332;11.180;2022-07-22T12:08:49;9.65;;;7.80;;
11283;SDS011;5698;47.332;11.180;2022-07-22T12:11:19;7.75;;;7.15;;
11283;SDS011;5698;47.332;11.180;2022-07-22T12:13:48;7.75;;;7.00;;
11283;SDS011;5698;47.332;11.180;2022-07-22T12:16:22;8.65;;;7.75;;
11283;SDS011;5698;47.332;11.180;2022-07-22T12:18:55;8.88;;;7.70;;
11283;SDS011;5698;47.332;11.180;2022-07-22T12:21:24;8.65;;;7.30;;
11283;SDS011;5698;47.332;11.180;2022-07-22T12:23:53;9.05;;;8.25;;
11283;SDS011;5698;47.332;11.180;2022-07-22T12:26:42;8.55;;;7.75;;
11283;SDS011;5698;47.332;11.180;2022-07-22T12:29:15;8.07;;;7.38;;
11283;SDS011;5698;47.332;11.180;2022-07-22T12:31:49;7.82;;;6.65;;
11283;SDS011;5698;47.332;11.180;2022-07-22T12:34:17;7.50;;;6.90;;
11283;SDS011;5698;47.332;11.180;2022-07-22T12:37:12;7.63;;;6.88;;
11283;SDS011;5698;47.332;11.180;2022-07-22T12:39:57;7.50;;;6.70;;
11283;SDS011;5698;47.332;11.180;2022-07-22T12:42:26;8.52;;;7.10;;
11283;SDS011;5698;47.332;11.180;2022-07-22T12:44:58;7.90;;;6.88;;
11283;SDS011;5698;47.332;11.180;2022-07-22T12:47:48;8.30;;;7.45;;
11283;SDS011;5698;47.332;11.180;2022-07-22T12:50:25;7.90;;;7.18;;
11283;SDS011;5698;47.332;11.180;2022-07-22T12:52:54;13.55;;;7.43;;
11283;SDS011;5698;47.332;11.180;2022-07-22T12:55:22;9.20;;;7.65;;
11283;SDS011;5698;47.332;11.180;2022-07-22T12:57:50;11.20;;;7.55;;
11283;SDS011;5698;47.332;11.180;2022-07-22T13:00:18;7.32;;;6.70;;
11283;SDS011;5698;47.332;11.180;2022-07-22T13:02:46;7.88;;;7.22;;
11283;SDS011;5698;47.332;11.180;2022-07-22T13:05:15;7.82;;;7.10;;
11283;SDS011;5698;47.332;11.180;2022-07-22T13:07:42;7.55;;;6.85;;
11283;SDS011;5698;47.332;11.180;2022-07-22T13:10:10;7.35;;;6.75;;
11283;SDS011;5698;47.332;11.180;2022-07-22T13:12:37;8.00;;;7.40;;
11283;SDS011;5698;47.332;11.180;2022-07-22T13:15:05;8.07;;;7.38;;
11283;SDS011;5698;47.332;11.180;2022-07-22T13:17:33;7.90;;;7.28;;
11283;SDS011;5698;47.332;11.180;2022-07-22T13:20:02;7.10;;;6.60;;
11283;SDS011;5698;47.332;11.180;2022-07-22T13:22:30;11.32;;;6.57;;
11283;SDS011;5698;47.332;11.180;2022-07-22T13:24:57;6.80;;;6.30;;
11283;SDS011;5698;47.332;11.180;2022-07-22T13:27:24;7.82;;;7.07;;
11283;SDS011;5698;47.332;11.180;2022-07-22T13:29:52;7.78;;;7.03;;
11283;SDS011;5698;47.332;11.180;2022-07-22T13:32:19;7.13;;;6.53;;
11283;SDS011;5698;47.332;11.180;2022-07-22T13:34:46;7.28;;;6.68;;
11283;SDS011;5698;47.332;11.180;2022-07-22T13:37:14;8.02;;;7.28;;
11283;SDS011;5698;47.332;11.180;2022-07-22T13:39:41;7.65;;;7.00;;
11283;SDS011;5698;47.332;11.180;2022-07-22T13:42:11;8.15;;;6.68;;
11283;SDS011;5698;47.332;11.180;2022-07-22T13:44:38;7.95;;;7.18;;
11283;SDS011;5698;47.332;11.180;2022-07-22T13:47:05;6.68;;;6.10;;
11283;SDS011;5698;47.332;11.180;2022-07-22T13:49:32;7.63;;;6.82;;
11283;SDS011;5698;47.332;11.180;2022-07-22T13:51:59;7.38;;;6.70;;
11283;SDS011;5698;47.332;11.180;2022-07-22T13:54:28;7.40;;;6.72;;
11283;SDS011;5698;47.332;11.180;2022-07-22T13:56:55;7.60;;;6.85;;
11283;SDS011;5698;47.332;11.180;2022-07-22T13:59:22;6.97;;;6.38;;
11283;SDS011;5698;47.332;11.180;2022-07-22T14:01:50;7.20;;;6.53;;
11283;SDS011;5698;47.332;11.180;2022-07-22T14:04:17;6.63;;;6.03;;
11283;SDS011;5698;47.332;11.180;2022-07-22T14:06:45;7.20;;;6.50;;
11283;SDS011;5698;47.332;11.180;2022-07-22T14:09:12;7.82;;;7.22;;
11283;SDS011;5698;47.332;11.180;2022-07-22T14:11:40;6.95;;;6.35;;
11283;SDS011;5698;47.332;11.180;2022-07-22T14:14:07;7.72;;;7.13;;
11283;SDS011;5698;47.332;11.180;2022-07-22T14:16:34;7.47;;;6.75;;
11283;SDS011;5698;47.332;11.180;2022-07-22T14:19:03;8.18;;;7.47;;
11283;SDS011;5698;47.332;11.180;2022-07-22T14:21:31;7.35;;;6.75;;
11283;SDS011;5698;47.332;11.180;2022-07-22T14:23:59;6.82;;;6.15;;
11283;SDS011;5698;47.332;11.180;2022-07-22T14:26:26;7.93;;;6.60;;
11283;SDS011;5698;47.332;11.180;2022-07-22T14:28:54;7.00;;;6.40;;
11283;SDS011;5698;47.332;11.180;2022-07-22T14:31:22;7.13;;;6.45;;
11283;SDS011;5698;47.332;11.180;2022-07-22T14:33:49;7.57;;;6.82;;
11283;SDS011;5698;47.332;11.180;2022-07-22T14:36:16;7.35;;;6.63;;
11283;SDS011;5698;47.332;11.180;2022-07-22T14:38:43;8.30;;;7.03;;
11283;SDS011;5698;47.332;11.180;2022-07-22T14:41:10;10.05;;;6.32;;